Terminal Aerodrome Forecast
Issued by NWS Omaha/Valley, NE

Home | Current Version | Previous Version | Text Only | Print | Product List | Glossary On
Versions: 1 2 3 4 5 6 7 8 9 10 11 12 13 14 15 16 17 18 19 20 21 22 23 24 25 26 27 28 29 30 31 32 33 34 35 36 37 38 39 40
000
FTUS43 KOAX 011459 AAB
TAFLNK
TAF AMD
KLNK 011459Z 0115/0212 36012G20KT 3SM -RA OVC010
      TEMPO 0115/0117 1SM -RA OVC005
     FM011900 36013KT P6SM OVC015
     FM012200 36014KT P6SM OVC025
     FM020100 35006KT P6SM OVC050=

USA.gov is the U.S. government's official web portal to all federal, state and local government web resources and services.